createdAt,value
2023-04-26T00:01:05.757Z,99450.81
2023-04-26T00:05:57.770Z,99449.13
2023-04-26T00:10:49.446Z,99448.44
2023-04-26T00:15:41.014Z,99457.53
2023-04-26T00:20:32.718Z,99456.88
2023-04-26T00:25:24.385Z,99465.78
2023-04-26T00:30:16.243Z,99454.59
2023-04-26T00:35:08.518Z,99444.81
2023-04-26T00:40:00.144Z,99445.22
2023-04-26T00:44:55.353Z,99446.84
2023-04-26T00:49:46.986Z,99450.59
2023-04-26T00:54:38.931Z,99446.59
2023-04-26T00:59:30.590Z,99446.38
2023-04-26T01:04:26.431Z,99445.09
2023-04-26T01:09:18.867Z,99446.31
2023-04-26T01:14:11.045Z,99438.00
2023-04-26T01:19:12.402Z,99436.09
2023-04-26T01:24:05.467Z,99437.31
2023-04-26T01:28:57.228Z,99433.75
2023-04-26T01:33:48.773Z,99432.03
2023-04-26T01:38:40.486Z,99423.69
2023-04-26T01:43:32.352Z,99427.44
2023-04-26T01:48:23.945Z,99418.25
2023-04-26T01:53:15.501Z,99410.75
2023-04-26T01:58:07.193Z,99409.47
2023-04-26T02:02:58.993Z,99405.53
2023-04-26T02:07:51.682Z,99395.16
2023-04-26T02:12:44.688Z,99398.41
2023-04-26T02:17:37.887Z,99398.81
2023-04-26T02:22:29.893Z,99402.91
2023-04-26T02:27:21.498Z,99401.22
2023-04-26T02:32:16.416Z,99404.31
2023-04-26T02:37:08.966Z,99400.78
2023-04-26T02:42:00.728Z,99387.34
2023-04-26T02:46:52.370Z,99385.03
2023-04-26T02:51:44.015Z,99375.47
2023-04-26T02:56:35.683Z,99375.66
2023-04-26T03:01:27.513Z,99384.78
2023-04-26T03:06:19.162Z,99375.88
2023-04-26T03:11:11.610Z,99377.94
2023-04-26T03:16:03.219Z,99376.63
2023-04-26T03:20:54.813Z,99380.75
2023-04-26T03:25:46.822Z,99375.97
2023-04-26T03:30:38.586Z,99378.38
2023-04-26T03:35:30.376Z,99364.28
2023-04-26T03:40:21.956Z,99365.53
2023-04-26T03:45:13.551Z,99362.38
2023-04-26T03:50:06.392Z,99363.59
2023-04-26T03:54:58.011Z,99358.44
2023-04-26T03:59:49.548Z,99347.88
2023-04-26T04:04:41.266Z,99342.22
2023-04-26T04:09:33.112Z,99340.56
2023-04-26T04:14:24.752Z,99343.63
2023-04-26T04:19:16.858Z,99344.25
2023-04-26T04:24:08.544Z,99333.69
2023-04-26T04:29:08.667Z,99346.38
2023-04-26T04:34:00.862Z,99342.69
2023-04-26T04:38:53.799Z,99347.41
2023-04-26T04:43:45.706Z,99352.56
2023-04-26T04:48:38.733Z,99358.81
2023-04-26T04:53:30.695Z,99365.63
2023-04-26T04:58:22.583Z,99364.81
2023-04-26T05:03:15.155Z,99362.50
2023-04-26T05:08:07.959Z,99365.19
2023-04-26T05:12:59.548Z,99354.63
2023-04-26T05:17:51.440Z,99365.19
2023-04-26T05:22:43.433Z,99368.50
2023-04-26T05:27:35.062Z,99360.44
2023-04-26T05:32:26.892Z,99364.44
2023-04-26T05:37:18.534Z,99358.88
2023-04-26T05:42:10.078Z,99357.56
2023-04-26T05:47:01.839Z,99357.38
2023-04-26T05:51:53.547Z,99372.50
2023-04-26T05:56:45.135Z,99370.38
2023-04-26T06:01:36.738Z,99378.63
2023-04-26T06:06:28.737Z,99385.31
2023-04-26T06:11:21.361Z,99386.56
2023-04-26T06:16:13.078Z,99394.50
2023-04-26T06:21:05.297Z,99398.34
2023-04-26T06:25:56.880Z,99396.41
2023-04-26T06:30:48.651Z,99398.06
2023-04-26T06:35:43.337Z,99404.13
2023-04-26T06:40:37.122Z,99399.09
2023-04-26T06:45:28.857Z,99394.41
2023-04-26T06:50:20.716Z,99387.44
2023-04-26T06:55:12.413Z,99383.75
2023-04-26T07:00:04.655Z,99381.53
2023-04-26T07:04:56.532Z,99387.78
2023-04-26T07:09:48.298Z,99387.38
2023-04-26T07:14:41.394Z,99387.19
2023-04-26T07:19:33.164Z,99393.91
2023-04-26T07:24:24.825Z,99392.03
2023-04-26T07:29:16.523Z,99399.94
2023-04-26T07:34:08.087Z,99394.34
2023-04-26T07:38:59.681Z,99395.56
2023-04-26T07:43:51.441Z,99394.91
2023-04-26T07:48:43.228Z,99400.09
2023-04-26T07:53:35.197Z,99383.81
2023-04-26T07:58:26.851Z,99397.47
2023-04-26T08:03:18.792Z,99402.78
2023-04-26T08:08:11.104Z,99406.47
2023-04-26T08:13:03.545Z,99398.81
2023-04-26T08:17:55.310Z,99393.63
2023-04-26T08:22:46.983Z,99396.97
2023-04-26T08:27:39.849Z,99396.28
2023-04-26T08:32:31.465Z,99392.66
2023-04-26T08:37:23.076Z,99398.81
2023-04-26T08:42:16.254Z,99392.53
2023-04-26T08:47:15.904Z,99393.50
2023-04-26T08:52:12.533Z,99383.66
2023-04-26T08:57:04.293Z,99393.38
2023-04-26T09:01:56.336Z,99393.69
2023-04-26T09:06:49.916Z,99386.09
2023-04-26T09:11:59.767Z,99385.31
2023-04-26T09:16:52.185Z,99386.78
2023-04-26T09:21:47.208Z,99386.69
2023-04-26T09:26:38.930Z,99390.75
2023-04-26T09:31:43.673Z,99387.19
2023-04-26T09:36:52.750Z,99387.56
2023-04-26T09:41:45.422Z,99384.22
2023-04-26T09:46:37.038Z,99383.84
2023-04-26T09:51:28.923Z,99377.97
2023-04-26T09:56:22.041Z,99375.31
2023-04-26T10:01:16.676Z,99378.44
2023-04-26T10:06:09.028Z,99371.63
2023-04-26T10:11:02.325Z,99373.41
2023-04-26T10:15:54.502Z,99370.34
2023-04-26T10:20:51.436Z,99356.56
2023-04-26T10:25:43.095Z,99345.59
2023-04-26T10:30:54.786Z,99353.56
2023-04-26T10:36:06.994Z,99349.03
2023-04-26T10:41:43.654Z,99347.84
2023-04-26T10:46:35.843Z,99350.19
2023-04-26T10:51:27.777Z,99337.72
2023-04-26T10:56:25.520Z,99328.75
2023-04-26T11:01:18.773Z,99327.59
2023-04-26T11:06:13.901Z,99335.00
2023-04-26T11:11:12.134Z,99327.16
2023-04-26T11:16:07.355Z,99323.41
2023-04-26T11:20:59.607Z,99322.47
2023-04-26T11:25:51.647Z,99320.53
2023-04-26T11:30:43.979Z,99313.75
2023-04-26T11:35:36.032Z,99314.25
2023-04-26T11:40:30.334Z,99321.31
2023-04-26T11:45:21.914Z,99329.03
2023-04-26T11:50:14.158Z,99330.53
2023-04-26T11:55:07.237Z,99328.28
2023-04-26T12:00:14.842Z,99314.44
2023-04-26T12:05:08.008Z,99319.09
2023-04-26T12:10:13.994Z,99320.91
2023-04-26T12:15:12.637Z,99307.75
2023-04-26T12:20:11.965Z,99317.56
2023-04-26T12:25:07.434Z,99307.88
2023-04-26T12:29:59.192Z,99304.53
2023-04-26T12:34:51.322Z,99304.88
2023-04-26T12:39:43.925Z,99311.13
2023-04-26T12:44:36.620Z,99318.06
2023-04-26T12:49:29.701Z,99320.03
2023-04-26T12:54:21.251Z,99323.13
2023-04-26T12:59:12.857Z,99334.88
2023-04-26T13:04:05.978Z,99339.47
2023-04-26T13:08:57.915Z,99333.47
2023-04-26T13:13:49.796Z,99334.69
2023-04-26T13:18:41.794Z,99339.06
2023-04-26T13:23:33.464Z,99335.91
2023-04-26T13:28:25.062Z,99331.06
2023-04-26T13:33:16.712Z,99329.19
2023-04-26T13:38:08.384Z,99326.25
2023-04-26T13:42:59.983Z,99328.19
2023-04-26T13:47:51.582Z,99314.59
2023-04-26T13:52:43.216Z,99308.91
2023-04-26T13:57:34.824Z,99317.38
2023-04-26T14:02:26.547Z,99309.78
2023-04-26T14:07:18.340Z,99310.31
2023-04-26T14:12:10.208Z,99329.38
2023-04-26T14:17:01.824Z,99327.50
2023-04-26T14:21:53.450Z,99328.72
2023-04-26T14:26:44.996Z,99329.75
2023-04-26T14:31:36.725Z,99318.75
2023-04-26T14:36:28.466Z,99316.06
2023-04-26T14:41:20.362Z,99305.41
2023-04-26T14:46:12.955Z,99302.72
2023-04-26T14:51:04.734Z,99306.16
2023-04-26T14:56:00.269Z,99301.50
2023-04-26T15:00:53.090Z,99295.28
2023-04-26T15:05:44.892Z,99289.28
2023-04-26T15:10:37.062Z,99288.06
2023-04-26T15:15:28.669Z,99294.75
2023-04-26T15:20:20.801Z,99290.00
2023-04-26T15:25:12.884Z,99284.63
2023-04-26T15:30:05.751Z,99282.25
2023-04-26T15:34:57.319Z,99278.19
2023-04-26T15:39:49.132Z,99290.94
2023-04-26T15:44:40.735Z,99280.53
2023-04-26T15:49:32.401Z,99279.44
2023-04-26T15:54:24.338Z,99285.47
2023-04-26T15:59:16.732Z,99288.53
2023-04-26T16:04:08.980Z,99284.47
2023-04-26T16:09:02.207Z,99288.84
2023-04-26T16:13:53.886Z,99288.09
2023-04-26T16:18:45.780Z,99283.31
2023-04-26T16:23:37.817Z,99284.63
2023-04-26T16:28:29.448Z,99284.53
2023-04-26T16:33:22.981Z,99295.66
2023-04-26T16:38:15.015Z,99284.59
2023-04-26T16:43:09.215Z,99284.78
2023-04-26T16:48:00.816Z,99289.00
2023-04-26T16:52:52.970Z,99283.50
2023-04-26T16:57:44.672Z,99288.44
2023-04-26T17:02:37.256Z,99295.13
2023-04-26T17:07:28.923Z,99280.34
2023-04-26T17:12:20.655Z,99290.06
2023-04-26T17:17:12.705Z,99289.75
2023-04-26T17:22:07.760Z,99287.34
2023-04-26T17:26:59.874Z,99284.88
2023-04-26T17:31:51.963Z,99284.47
2023-04-26T17:36:45.705Z,99293.16
2023-04-26T17:41:38.388Z,99288.31
2023-04-26T17:46:29.988Z,99288.72
2023-04-26T17:51:21.744Z,99290.91
2023-04-26T17:56:13.409Z,99287.44
2023-04-26T18:01:05.517Z,99281.91
2023-04-26T18:05:57.568Z,99293.59
2023-04-26T18:10:51.558Z,99295.31
2023-04-26T18:15:43.203Z,99279.59
2023-04-26T18:20:36.760Z,99282.69
2023-04-26T18:25:28.774Z,99282.03
2023-04-26T18:30:20.751Z,99277.56
2023-04-26T18:35:12.787Z,99279.00
2023-04-26T18:40:05.595Z,99272.28
2023-04-26T18:44:57.283Z,99269.56
2023-04-26T18:49:48.818Z,99272.91
2023-04-26T18:54:42.119Z,99277.88
2023-04-26T18:59:33.798Z,99275.97
2023-04-26T19:04:26.552Z,99284.56
2023-04-26T19:09:18.722Z,99278.31
2023-04-26T19:14:10.649Z,99284.56
2023-04-26T19:19:02.270Z,99280.63
2023-04-26T19:23:53.796Z,99285.59
2023-04-26T19:28:45.608Z,99299.69
2023-04-26T19:33:37.239Z,99299.06
2023-04-26T19:38:28.898Z,99296.69
2023-04-26T19:43:21.134Z,99311.41
2023-04-26T19:48:13.328Z,99321.38
2023-04-26T19:53:04.984Z,99323.19
2023-04-26T19:57:57.052Z,99326.91
2023-04-26T20:02:49.845Z,99333.22
2023-04-26T20:07:41.773Z,99334.56
2023-04-26T20:12:33.613Z,99345.47
2023-04-26T20:17:25.815Z,99344.13
2023-04-26T20:22:17.704Z,99347.31
2023-04-26T20:27:09.350Z,99363.06
2023-04-26T20:32:01.098Z,99368.06
2023-04-26T20:36:52.680Z,99354.38
2023-04-26T20:41:44.328Z,99362.56
2023-04-26T20:46:36.193Z,99365.50
2023-04-26T20:51:27.817Z,99368.00
2023-04-26T20:56:19.412Z,99370.56
2023-04-26T21:01:11.651Z,99376.84
2023-04-26T21:06:03.455Z,99379.19
2023-04-26T21:10:55.100Z,99380.06
2023-04-26T21:15:47.337Z,99386.34
2023-04-26T21:20:39.011Z,99387.44
2023-04-26T21:25:30.699Z,99377.94
2023-04-26T21:30:22.467Z,99385.63
2023-04-26T21:35:14.075Z,99384.88
2023-04-26T21:40:07.124Z,99388.66
2023-04-26T21:44:58.704Z,99383.47
2023-04-26T21:49:51.413Z,99385.41
2023-04-26T21:54:43.030Z,99388.09
2023-04-26T21:59:35.458Z,99370.25
2023-04-26T22:04:27.141Z,99372.34
2023-04-26T22:09:18.760Z,99365.31
2023-04-26T22:14:10.501Z,99374.50
2023-04-26T22:19:02.284Z,99373.47
2023-04-26T22:23:53.921Z,99367.06
2023-04-26T22:28:45.598Z,99363.53
2023-04-26T22:33:37.198Z,99375.78
2023-04-26T22:38:28.730Z,99379.53
2023-04-26T22:43:23.111Z,99396.16
2023-04-26T22:48:14.873Z,99396.78
2023-04-26T22:53:06.795Z,99400.34
2023-04-26T22:57:58.398Z,99401.19
2023-04-26T23:02:51.002Z,99391.63
2023-04-26T23:07:42.647Z,99392.91
2023-04-26T23:12:36.086Z,99388.72
2023-04-26T23:17:27.987Z,99392.06
2023-04-26T23:22:20.486Z,99392.88
2023-04-26T23:27:12.225Z,99387.91
2023-04-26T23:32:04.007Z,99407.84
2023-04-26T23:36:55.899Z,99409.50
2023-04-26T23:41:47.567Z,99407.22
2023-04-26T23:46:39.154Z,99394.75
2023-04-26T23:51:32.335Z,99402.66
2023-04-26T23:56:24.075Z,99387.28
